Time;durP1;ratioP1;P1;durP2;ratioP2;P2;SDS_P1;SDS_P2;PMS_P1;PMS_P2;Temp;Humidity;BMP_temperature;BMP_pressure;BME280_temperature;BME280_humidity;BME280_pressure;Samples;Min_cycle;Max_cycle;Signal;HPM_P1;HPM_P2
2019/09/10 00:02:11;;;;;;;6.1;3.7;;;;;;;11.32;83.9043;1002.101;;;;
2019/09/10 00:04:36;;;;;;;5.5;3.7;;;;;;;11.27;84.35254;1002.095;;;;
2019/09/10 00:07:01;;;;;;;6.3;3.7;;;;;;;11.26;85.18945;1002.098;;;;
2019/09/10 00:09:27;;;;;;;4.9;3.5;;;;;;;11.55;84.86719;1002.098;;;;
2019/09/10 00:11:52;;;;;;;6.2;3.3;;;;;;;11.6;84.2793;1002.101;;;;
2019/09/10 00:14:17;;;;;;;5.5;3.6;;;;;;;11.55;83.75293;1002.063;;;;
2019/09/10 00:16:42;;;;;;;5.8;3.8;;;;;;;11.56;84.33008;1002.117;;;;
2019/09/10 00:19:07;;;;;;;8;3.6;;;;;;;11.47;84.65625;1002.107;;;;
2019/09/10 00:21:32;;;;;;;6.6;3.6;;;;;;;11.5;84.47852;1002.063;;;;
2019/09/10 00:23:58;;;;;;;7.1;4;;;;;;;11.51;84.24902;1002.035;;;;
2019/09/10 00:26:23;;;;;;;7.5;4.8;;;;;;;11.62;83.97461;1002.025;;;;
2019/09/10 00:28:48;;;;;;;6.5;3.7;;;;;;;11.65;83.83105;1002.005;;;;
2019/09/10 00:31:13;;;;;;;7.9;3.7;;;;;;;11.67;83.76367;1001.962;;;;
2019/09/10 00:33:38;;;;;;;5.6;3.4;;;;;;;11.69;83.6543;1001.959;;;;
2019/09/10 00:36:04;;;;;;;6.5;3.7;;;;;;;11.67;83.66211;1001.958;;;;
2019/09/10 00:38:29;;;;;;;7;3.5;;;;;;;11.49;84.40723;1001.947;;;;
2019/09/10 00:40:54;;;;;;;6;3.5;;;;;;;11.43;84.74121;1001.964;;;;
2019/09/10 00:43:19;;;;;;;7.8;3.5;;;;;;;11.39;84.88379;1001.98;;;;
2019/09/10 00:45:44;;;;;;;7.6;3.7;;;;;;;11.32;85.29199;1001.982;;;;
2019/09/10 00:48:09;;;;;;;6.5;4;;;;;;;11.23;85.58203;1001.954;;;;
2019/09/10 00:50:34;;;;;;;7.6;4.2;;;;;;;;;;;;;
2019/09/10 00:52:59;;;;;;;8.6;4;;;;;;;;;;;;;
2019/09/10 00:55:25;;;;;;;7.5;3.7;;;;;;;;;;;;;
2019/09/10 00:57:50;;;;;;;6.9;3.7;;;;;;;;;;;;;
2019/09/10 01:00:15;;;;;;;4.9;3.5;;;;;;;;;;;;;
2019/09/10 01:02:40;;;;;;;7;3.7;;;;;;;;;;;;;
2019/09/10 01:05:05;;;;;;;7.1;3.7;;;;;;;;;;;;;
2019/09/10 01:07:30;;;;;;;6.6;4;;;;;;;;;;;;;
2019/09/10 01:09:55;;;;;;;5.7;3.9;;;;;;;;;;;;;
2019/09/10 01:12:20;;;;;;;6.5;4.1;;;;;;;;;;;;;
2019/09/10 01:14:45;;;;;;;7.4;4.2;;;;;;;;;;;;;
2019/09/10 01:17:11;;;;;;;8;4.2;;;;;;;;;;;;;
2019/09/10 01:19:36;;;;;;;6.9;3.9;;;;;;;;;;;;;
2019/09/10 01:22:01;;;;;;;4.9;3.8;;;;;;;;;;;;;
2019/09/10 01:24:26;;;;;;;7.5;4.1;;;;;;;;;;;;;
2019/09/10 01:26:51;;;;;;;6.3;4.2;;;;;;;;;;;;;
2019/09/10 01:29:16;;;;;;;7.5;4.5;;;;;;;;;;;;;
2019/09/10 01:31:41;;;;;;;6.3;4.1;;;;;;;;;;;;;
2019/09/10 01:34:06;;;;;;;6.5;3.9;;;;;;;;;;;;;
2019/09/10 01:36:31;;;;;;;7.3;4.2;;;;;;;;;;;;;
2019/09/10 01:38:56;;;;;;;4.8;3.7;;;;;;;;;;;;;
2019/09/10 01:41:21;;;;;;;8;4;;;;;;;;;;;;;
2019/09/10 01:43:47;;;;;;;7.6;4.2;;;;;;;;;;;;;
2019/09/10 01:46:12;;;;;;;6.2;4.2;;;;;;;;;;;;;
2019/09/10 01:48:37;;;;;;;9.6;4.4;;;;;;;;;;;;;
2019/09/10 01:51:02;;;;;;;7.7;4.3;;;;;;;;;;;;;
2019/09/10 01:53:27;;;;;;;8.1;4.8;;;;;;;;;;;;;
2019/09/10 01:55:52;;;;;;;10.9;5.2;;;;;;;;;;;;;
2019/09/10 01:58:17;;;;;;;6.9;4.8;;;;;;;;;;;;;
2019/09/10 02:00:42;;;;;;;9.7;5.4;;;;;;;;;;;;;
2019/09/10 02:03:07;;;;;;;7.9;4.8;;;;;;;;;;;;;
2019/09/10 02:05:32;;;;;;;7.3;4.9;;;;;;;;;;;;;
2019/09/10 02:07:58;;;;;;;8.3;4.8;;;;;;;;;;;;;
2019/09/10 02:10:23;;;;;;;8.2;5.2;;;;;;;;;;;;;
2019/09/10 02:12:48;;;;;;;7.1;4.5;;;;;;;;;;;;;
2019/09/10 02:15:13;;;;;;;8.4;4.9;;;;;;;;;;;;;
2019/09/10 02:17:38;;;;;;;6.9;4.5;;;;;;;;;;;;;
2019/09/10 02:20:03;;;;;;;7.3;4.8;;;;;;;;;;;;;
2019/09/10 02:22:28;;;;;;;8.1;4.5;;;;;;;;;;;;;
2019/09/10 02:24:53;;;;;;;6.4;5.2;;;;;;;;;;;;;
2019/09/10 02:27:18;;;;;;;6.8;5.1;;;;;;;;;;;;;
2019/09/10 02:29:43;;;;;;;8.7;5.8;;;;;;;;;;;;;
2019/09/10 02:32:08;;;;;;;8.8;5.4;;;;;;;;;;;;;
2019/09/10 02:34:33;;;;;;;9.7;5.7;;;;;;;;;;;;;
2019/09/10 02:36:58;;;;;;;7.4;5.4;;;;;;;;;;;;;
2019/09/10 02:39:24;;;;;;;9.9;6;;;;;;;;;;;;;
2019/09/10 02:41:49;;;;;;;9.6;6;;;;;;;;;;;;;
2019/09/10 02:44:14;;;;;;;8.5;5.6;;;;;;;;;;;;;
2019/09/10 02:46:39;;;;;;;9.7;5.7;;;;;;;;;;;;;
2019/09/10 02:49:04;;;;;;;8.8;5;;;;;;;;;;;;;
2019/09/10 02:51:30;;;;;;;9.1;5.5;;;;;;;;;;;;;
2019/09/10 02:53:54;;;;;;;10.3;5.4;;;;;;;;;;;;;
2019/09/10 02:56:19;;;;;;;10.6;5.7;;;;;;;;;;;;;
2019/09/10 02:58:44;;;;;;;9;5.3;;;;;;;;;;;;;
2019/09/10 03:01:10;;;;;;;6.5;5.3;;;;;;;;;;;;;
2019/09/10 03:03:35;;;;;;;8.7;6;;;;;;;;;;;;;
2019/09/10 03:06:00;;;;;;;9.9;5.8;;;;;;;;;;;;;
2019/09/10 03:08:25;;;;;;;11.5;6;;;;;;;;;;;;;
2019/09/10 03:10:50;;;;;;;8;5.4;;;;;;;;;;;;;
2019/09/10 03:13:15;;;;;;;7.7;5.1;;;;;;;;;;;;;
2019/09/10 03:15:41;;;;;;;7.8;5.5;;;;;;;;;;;;;
2019/09/10 03:18:06;;;;;;;9.8;6;;;;;;;;;;;;;
2019/09/10 03:20:31;;;;;;;9.8;6.4;;;;;;;;;;;;;
2019/09/10 03:22:56;;;;;;;9.9;6.2;;;;;;;;;;;;;
2019/09/10 03:25:21;;;;;;;12;6.5;;;;;;;;;;;;;
2019/09/10 03:27:46;;;;;;;9.9;6.5;;;;;;;;;;;;;
2019/09/10 03:30:11;;;;;;;11.7;6.5;;;;;;;;;;;;;
2019/09/10 03:32:36;;;;;;;10.2;6.7;;;;;;;;;;;;;
2019/09/10 03:35:02;;;;;;;8.8;6.3;;;;;;;;;;;;;
2019/09/10 03:37:27;;;;;;;10.6;6.3;;;;;;;;;;;;;
2019/09/10 03:39:52;;;;;;;12;6.7;;;;;;;;;;;;;
2019/09/10 03:42:17;;;;;;;12;6.8;;;;;;;;;;;;;
2019/09/10 03:44:42;;;;;;;10.8;7.1;;;;;;;;;;;;;
2019/09/10 03:47:07;;;;;;;10.4;6.5;;;;;;;;;;;;;
2019/09/10 03:49:32;;;;;;;10.2;6.4;;;;;;;;;;;;;
2019/09/10 03:51:57;;;;;;;9.8;6.5;;;;;;;;;;;;;
2019/09/10 03:54:23;;;;;;;9.2;5.7;;;;;;;;;;;;;
2019/09/10 03:56:48;;;;;;;9.3;6.5;;;;;;;;;;;;;
2019/09/10 03:59:13;;;;;;;11.6;7.5;;;;;;;;;;;;;
2019/09/10 04:02:28;;;;;;;14.5;7.9;;;;;;;9.72;90.7373;1001.817;;;;
2019/09/10 04:04:53;;;;;;;12.7;7.3;;;;;;;9.71;90.97266;1001.838;;;;
2019/09/10 04:07:18;;;;;;;13.2;8;;;;;;;9.62;91.44727;1001.82;;;;
2019/09/10 04:09:43;;;;;;;11.9;7.8;;;;;;;9.58;91.7002;1001.83;;;;
2019/09/10 04:12:08;;;;;;;14.9;7.8;;;;;;;9.6;91.80664;1001.859;;;;
2019/09/10 04:14:33;;;;;;;11.2;7.6;;;;;;;9.61;91.48926;1001.883;;;;
2019/09/10 04:16:58;;;;;;;13.1;7.3;;;;;;;9.6;91.55566;1001.994;;;;
2019/09/10 04:19:23;;;;;;;11.8;6.9;;;;;;;9.68;91.07031;1001.989;;;;
2019/09/10 04:21:48;;;;;;;11.5;7.2;;;;;;;9.82;90.62988;1001.992;;;;
2019/09/10 04:24:14;;;;;;;11.2;6.1;;;;;;;10.04;89.85449;1001.985;;;;
2019/09/10 04:26:39;;;;;;;10.8;6.2;;;;;;;10.14;89.2002;1002.011;;;;
2019/09/10 04:29:04;;;;;;;9;5.7;;;;;;;10.02;88.84375;1002.03;;;;
2019/09/10 04:31:29;;;;;;;12;6.5;;;;;;;9.98;89.27148;1002.096;;;;
2019/09/10 04:33:54;;;;;;;8.7;5.8;;;;;;;10.1;88.98633;1002.132;;;;
2019/09/10 04:36:19;;;;;;;9.8;5.5;;;;;;;10.25;88.39648;1002.103;;;;
2019/09/10 04:38:45;;;;;;;7.5;5.4;;;;;;;10.23;88.16602;1002.134;;;;
2019/09/10 04:41:10;;;;;;;8.4;5.5;;;;;;;10.25;87.88184;1002.108;;;;
2019/09/10 04:43:35;;;;;;;9.1;5.4;;;;;;;10.39;87.2832;1002.21;;;;
2019/09/10 04:46:00;;;;;;;9.6;6.2;;;;;;;10.07;87.96289;1002.185;;;;
2019/09/10 04:48:25;;;;;;;8.1;6.1;;;;;;;9.97;88.84473;1002.153;;;;
2019/09/10 04:50:50;;;;;;;11.3;6.6;;;;;;;9.94;88.80273;1002.187;;;;
2019/09/10 04:53:15;;;;;;;12.1;8;;;;;;;9.65;90.55078;1002.326;;;;
2019/09/10 04:55:40;;;;;;;11.8;7.8;;;;;;;9.55;91.21289;1002.309;;;;
2019/09/10 04:58:05;;;;;;;14.4;8.7;;;;;;;9.46;91.74414;1002.337;;;;
2019/09/10 05:00:30;;;;;;;14.2;9.1;;;;;;;9.4;92.08301;1002.316;;;;
2019/09/10 05:02:56;;;;;;;16.3;10.7;;;;;;;9.36;92.34863;1002.301;;;;
2019/09/10 05:05:21;;;;;;;16.4;9.8;;;;;;;9.42;92.24805;1002.339;;;;
2019/09/10 05:07:46;;;;;;;16.2;9.5;;;;;;;9.45;92.00293;1002.322;;;;
2019/09/10 05:10:11;;;;;;;17.3;9.5;;;;;;;9.54;91.69238;1002.328;;;;
2019/09/10 05:12:36;;;;;;;14.7;9.3;;;;;;;9.7;91.03027;1002.355;;;;
2019/09/10 05:15:01;;;;;;;14.3;8.9;;;;;;;9.71;90.80176;1002.353;;;;
2019/09/10 05:17:27;;;;;;;14.4;8.9;;;;;;;9.77;90.66602;1002.361;;;;
2019/09/10 05:19:52;;;;;;;14.2;9.2;;;;;;;9.82;90.62109;1002.362;;;;
2019/09/10 05:22:17;;;;;;;14.1;8.9;;;;;;;9.91;89.98633;1002.326;;;;
2019/09/10 05:24:42;;;;;;;15.7;9.2;;;;;;;9.98;90.02441;1002.336;;;;
2019/09/10 05:27:07;;;;;;;14.8;9.3;;;;;;;9.94;89.87695;1002.326;;;;
2019/09/10 05:29:32;;;;;;;14.2;9;;;;;;;10.03;89.6123;1002.297;;;;
2019/09/10 05:31:57;;;;;;;12.5;8.6;;;;;;;10.09;89.23633;1002.344;;;;
2019/09/10 05:34:22;;;;;;;12.1;8.2;;;;;;;10.14;89.0166;1002.406;;;;
2019/09/10 05:36:47;;;;;;;12.3;8.2;;;;;;;10.13;89.15234;1002.418;;;;
2019/09/10 05:39:12;;;;;;;15.5;9.1;;;;;;;10.09;89.2002;1002.45;;;;
2019/09/10 05:41:38;;;;;;;15.2;9.1;;;;;;;10.27;88.88281;1002.523;;;;
2019/09/10 05:44:03;;;;;;;14.9;9.4;;;;;;;10.37;88.10352;1002.581;;;;
2019/09/10 05:46:28;;;;;;;17.4;9.1;;;;;;;10.47;87.68945;1002.615;;;;
2019/09/10 05:48:53;;;;;;;13.6;9;;;;;;;10.67;87.16602;1002.663;;;;
2019/09/10 05:51:18;;;;;;;13.7;9;;;;;;;10.83;86.05371;1002.64;;;;
2019/09/10 05:53:43;;;;;;;14.3;9;;;;;;;11.09;85.18848;1002.692;;;;
2019/09/10 05:56:08;;;;;;;14.5;9.2;;;;;;;11.02;85.15137;1002.712;;;;
2019/09/10 05:58:34;;;;;;;13.8;8.6;;;;;;;11.1;85.35254;1002.775;;;;
2019/09/10 06:00:59;;;;;;;16.2;8.6;;;;;;;11.29;83.85352;1002.824;;;;
2019/09/10 06:03:24;;;;;;;15.6;9;;;;;;;11.34;83.73535;1002.785;;;;
2019/09/10 06:05:49;;;;;;;13.8;8.5;;;;;;;11.28;84.17285;1002.813;;;;
2019/09/10 06:08:14;;;;;;;13.1;9;;;;;;;11.39;83.67676;1002.885;;;;
2019/09/10 06:10:39;;;;;;;15.2;8.5;;;;;;;11.67;82.39941;1002.919;;;;
2019/09/10 06:13:04;;;;;;;15.7;8.3;;;;;;;11.75;81.87402;1002.968;;;;
2019/09/10 06:15:29;;;;;;;13.9;8.5;;;;;;;11.93;81.10547;1002.968;;;;
2019/09/10 06:17:54;;;;;;;13;8.2;;;;;;;12.14;80.25977;1002.953;;;;
2019/09/10 06:20:20;;;;;;;13.7;7.8;;;;;;;12.55;78.21973;1002.929;;;;
2019/09/10 06:22:45;;;;;;;13.6;7.5;;;;;;;12.88;77.14063;1002.95;;;;
2019/09/10 06:25:12;;;;;;;13.6;7.8;;;;;;;12.66;77.07617;1002.996;;;;
2019/09/10 06:27:37;;;;;;;11.4;7.3;;;;;;;13.03;76.27832;1003.021;;;;
2019/09/10 06:30:02;;;;;;;9.9;6.5;;;;;;;13.53;74.40625;1003.044;;;;
2019/09/10 06:32:27;;;;;;;12.8;7.4;;;;;;;13.59;73.80664;1003.043;;;;
2019/09/10 06:34:52;;;;;;;9.7;6.7;;;;;;;13.9;71.98926;1003.102;;;;
2019/09/10 06:37:17;;;;;;;13.8;6.4;;;;;;;14.15;71.11914;1003.047;;;;
2019/09/10 06:39:43;;;;;;;9.4;6.3;;;;;;;14.02;71.35059;1003.049;;;;
2019/09/10 06:42:07;;;;;;;8.7;6.2;;;;;;;14.4;70.04004;1003.063;;;;
2019/09/10 06:44:32;;;;;;;9.3;6;;;;;;;14.7;68.20508;1002.985;;;;
2019/09/10 06:46:58;;;;;;;8.5;6.1;;;;;;;14.48;68.82813;1003.109;;;;
2019/09/10 06:49:23;;;;;;;9.6;6.1;;;;;;;14.98;67.66992;1003.093;;;;
2019/09/10 06:51:48;;;;;;;10.7;6.7;;;;;;;15.1;66.72852;1003.149;;;;
2019/09/10 06:54:13;;;;;;;9.8;6;;;;;;;15.24;66.30957;1003.188;;;;
2019/09/10 06:56:38;;;;;;;10.8;6.4;;;;;;;15.05;66.39746;1003.145;;;;
2019/09/10 06:59:03;;;;;;;9.3;6.2;;;;;;;15.32;66.18359;1003.101;;;;
2019/09/10 07:01:28;;;;;;;9.7;6;;;;;;;15.72;64.7832;1003.064;;;;
2019/09/10 07:03:53;;;;;;;9.4;5.9;;;;;;;16.55;61.95898;1003.066;;;;
2019/09/10 07:06:18;;;;;;;9.8;6;;;;;;;16.81;61.01953;1003.108;;;;
2019/09/10 07:08:43;;;;;;;9.3;6.5;;;;;;;16.82;60.87012;1003.124;;;;
2019/09/10 07:11:09;;;;;;;8.5;6;;;;;;;18.17;56.4209;1003.148;;;;
2019/09/10 07:13:34;;;;;;;10;5.8;;;;;;;18.51;56.00879;1003.065;;;;
2019/09/10 07:15:59;;;;;;;9.2;6;;;;;;;18.8;54.12012;1003.037;;;;
2019/09/10 07:18:24;;;;;;;11.4;6.6;;;;;;;17.71;57.89844;1003.047;;;;
2019/09/10 07:20:49;;;;;;;11;5.9;;;;;;;18.45;55.2793;1003.043;;;;
2019/09/10 07:23:14;;;;;;;10.9;6.4;;;;;;;17.67;56.99609;1003.1;;;;
2019/09/10 07:25:39;;;;;;;13;6.6;;;;;;;17.82;57.45703;1003.129;;;;
2019/09/10 07:28:04;;;;;;;11.8;6.2;;;;;;;19.02;55.16406;1003.128;;;;
2019/09/10 07:30:30;;;;;;;9.8;6.5;;;;;;;19.27;53.16309;1003.107;;;;
2019/09/10 07:32:55;;;;;;;10.4;6.1;;;;;;;19.41;52.99219;1003.09;;;;
2019/09/10 07:35:20;;;;;;;11.9;7;;;;;;;19.28;53.57324;1003.115;;;;
2019/09/10 07:37:47;;;;;;;10.4;6.5;;;;;;;20.11;51.86035;1003.144;;;;
2019/09/10 07:40:10;;;;;;;9.4;6.2;;;;;;;20.11;52.54883;1003.142;;;;
2019/09/10 07:42:35;;;;;;;8.9;6.1;;;;;;;21.5;49.09961;1003.16;;;;
2019/09/10 07:45:00;;;;;;;11.9;7.1;;;;;;;21.77;48.50684;1003.216;;;;
2019/09/10 07:47:25;;;;;;;9.8;6.8;;;;;;;21.88;47.07422;1003.254;;;;
2019/09/10 07:49:50;;;;;;;8.6;6.2;;;;;;;23;45.22656;1003.344;;;;
2019/09/10 07:52:16;;;;;;;12.3;7.2;;;;;;;22.28;46.90527;1003.376;;;;
2019/09/10 07:54:41;;;;;;;8.6;6.2;;;;;;;23.93;42.3584;1003.367;;;;
2019/09/10 07:57:06;;;;;;;8.8;6.2;;;;;;;24.33;42.04297;1003.389;;;;
2019/09/10 07:59:31;;;;;;;9.8;6.2;;;;;;;26.2;38.43359;1003.425;;;;
2019/09/10 08:01:56;;;;;;;8.8;6;;;;;;;25.9;38.74023;1003.434;;;;
2019/09/10 08:04:21;;;;;;;8.7;6.2;;;;;;;24.76;39.99023;1003.462;;;;
2019/09/10 08:06:47;;;;;;;8.9;6.3;;;;;;;25.12;40.08203;1003.514;;;;
2019/09/10 08:09:12;;;;;;;9.5;7.1;;;;;;;24.58;40.77734;1003.522;;;;
2019/09/10 08:11:37;;;;;;;9.8;6.5;;;;;;;25.85;39.20996;1003.539;;;;
2019/09/10 08:14:02;;;;;;;10.7;7.1;;;;;;;24.44;41.56738;1003.551;;;;
2019/09/10 08:16:27;;;;;;;10.1;6.4;;;;;;;24.28;42.07324;1003.529;;;;
2019/09/10 08:18:53;;;;;;;8.7;6.1;;;;;;;24.26;41.26758;1003.509;;;;
2019/09/10 08:21:18;;;;;;;9.5;6;;;;;;;24.47;41.26367;1003.411;;;;
2019/09/10 08:23:45;;;;;;;11;6.4;;;;;;;25.37;39.39355;1003.412;;;;
2019/09/10 08:26:10;;;;;;;9.7;6.3;;;;;;;25.1;40.73047;1003.44;;;;
2019/09/10 08:28:36;;;;;;;8.8;6.5;;;;;;;25.87;38.34668;1003.487;;;;
2019/09/10 08:31:01;;;;;;;9.8;6.9;;;;;;;26.36;38.02051;1003.455;;;;
2019/09/10 08:33:26;;;;;;;9.3;5.9;;;;;;;25.85;39.81445;1003.442;;;;
2019/09/10 08:35:51;;;;;;;8.6;5.7;;;;;;;25.26;40.07031;1003.416;;;;
2019/09/10 08:38:16;;;;;;;12.4;6.2;;;;;;;25.73;39.44824;1003.527;;;;
2019/09/10 08:40:41;;;;;;;8;5.7;;;;;;;27.02;36.80469;1003.66;;;;
2019/09/10 08:43:06;;;;;;;7.7;5.5;;;;;;;27.26;35.83789;1003.669;;;;
2019/09/10 08:45:32;;;;;;;7.9;5.7;;;;;;;28.5;34.44629;1003.656;;;;
2019/09/10 08:47:57;;;;;;;7;4.6;;;;;;;28.58;33.61816;1003.655;;;;
2019/09/10 08:50:22;;;;;;;7;5;;;;;;;27.57;35.16016;1003.756;;;;
2019/09/10 08:52:47;;;;;;;6.3;4.5;;;;;;;26.4;37.33594;1003.813;;;;
2019/09/10 08:55:12;;;;;;;8.9;5.2;;;;;;;25.63;38.51563;1003.834;;;;
2019/09/10 08:57:37;;;;;;;7.7;5.2;;;;;;;26.25;37.72656;1003.896;;;;
2019/09/10 09:00:02;;;;;;;7.6;5;;;;;;;26.24;37.84375;1003.797;;;;
2019/09/10 09:02:28;;;;;;;7.8;5.2;;;;;;;23.89;42.30762;1003.895;;;;
2019/09/10 09:04:53;;;;;;;10.3;6.9;;;;;;;23.72;42.91699;1003.827;;;;
2019/09/10 09:07:18;;;;;;;6.7;5.3;;;;;;;22.82;45.11426;1003.833;;;;
2019/09/10 09:09:43;;;;;;;8;5.1;;;;;;;24.14;42.4375;1003.727;;;;
2019/09/10 09:12:08;;;;;;;6.8;5;;;;;;;24.88;40.75781;1003.734;;;;
2019/09/10 09:14:33;;;;;;;6.9;4.6;;;;;;;25.63;38.56348;1003.741;;;;
2019/09/10 09:16:58;;;;;;;7.9;4.3;;;;;;;26.39;38.48633;1003.809;;;;
2019/09/10 09:19:23;;;;;;;6.8;5.1;;;;;;;24.94;40.30176;1003.785;;;;
2019/09/10 09:21:49;;;;;;;7.5;5.1;;;;;;;25.67;39.65625;1003.847;;;;
2019/09/10 09:24:14;;;;;;;7.4;4.9;;;;;;;25.45;38.82031;1003.809;;;;
2019/09/10 09:26:39;;;;;;;6.9;4.9;;;;;;;24.99;39.83398;1003.775;;;;
2019/09/10 09:29:04;;;;;;;7.7;5.1;;;;;;;23.64;41.56445;1003.764;;;;
2019/09/10 09:31:29;;;;;;;9.1;5.3;;;;;;;23.35;43.74219;1003.783;;;;
2019/09/10 09:33:54;;;;;;;7.9;5.3;;;;;;;22.34;45.08789;1003.778;;;;
2019/09/10 09:36:19;;;;;;;7.5;5;;;;;;;22.43;43.33398;1003.834;;;;
2019/09/10 09:38:44;;;;;;;7.7;4.9;;;;;;;22.86;43.45801;1003.902;;;;
2019/09/10 09:41:09;;;;;;;8.3;5.3;;;;;;;21.43;46.60449;1003.766;;;;
2019/09/10 09:43:34;;;;;;;6.4;4.9;;;;;;;22.79;44.00488;1003.804;;;;
2019/09/10 09:46:00;;;;;;;5.9;4.7;;;;;;;23.2;42.99609;1003.803;;;;
2019/09/10 09:48:25;;;;;;;7.3;5.2;;;;;;;23.61;41.73828;1003.804;;;;
2019/09/10 09:50:50;;;;;;;7;4.3;;;;;;;23.26;41.55273;1003.793;;;;
2019/09/10 09:53:15;;;;;;;6.1;4.7;;;;;;;23.13;42.03516;1003.833;;;;
2019/09/10 09:55:40;;;;;;;7.4;4.5;;;;;;;23.09;41.82031;1003.856;;;;
2019/09/10 09:58:06;;;;;;;7.6;5.2;;;;;;;22.86;42.52734;1003.817;;;;
2019/09/10 10:00:31;;;;;;;6.1;4.3;;;;;;;22.46;41.99512;1003.817;;;;
2019/09/10 10:02:56;;;;;;;7.2;4.8;;;;;;;22.06;43.34375;1003.78;;;;
2019/09/10 10:05:21;;;;;;;7.1;5.2;;;;;;;21.61;44.16992;1003.811;;;;
2019/09/10 10:07:46;;;;;;;8.6;5.4;;;;;;;22.27;43.30664;1003.832;;;;
2019/09/10 10:10:11;;;;;;;7.7;5.4;;;;;;;21.88;42.80957;1003.707;;;;
2019/09/10 10:12:36;;;;;;;7.7;5.2;;;;;;;21.77;43.60938;1003.766;;;;
2019/09/10 10:15:01;;;;;;;12;5.2;;;;;;;21.43;44.73828;1003.691;;;;
2019/09/10 10:17:26;;;;;;;8.6;5;;;;;;;21.73;44.07617;1003.694;;;;
2019/09/10 10:19:52;;;;;;;7.4;4.7;;;;;;;22.39;41.98926;1003.751;;;;
2019/09/10 10:22:17;;;;;;;7.5;4.7;;;;;;;22.53;42.24902;1003.77;;;;
2019/09/10 10:24:42;;;;;;;6.7;5;;;;;;;22.12;43.16211;1003.693;;;;
2019/09/10 10:27:07;;;;;;;8.2;5.2;;;;;;;22.05;43.56641;1003.616;;;;
2019/09/10 10:29:32;;;;;;;6.4;4.8;;;;;;;22.32;42.42969;1003.643;;;;
2019/09/10 10:31:57;;;;;;;6.9;4.9;;;;;;;22.51;42.80078;1003.582;;;;
2019/09/10 10:34:22;;;;;;;10;6.3;;;;;;;23.01;41.57617;1003.627;;;;
2019/09/10 10:36:48;;;;;;;6.9;4.7;;;;;;;23.43;41.07324;1003.6;;;;
2019/09/10 10:39:13;;;;;;;6.5;4.9;;;;;;;22.27;43.58887;1003.538;;;;
2019/09/10 10:41:38;;;;;;;5.2;4.1;;;;;;;22.86;41.44531;1003.59;;;;
2019/09/10 10:44:03;;;;;;;7.5;4.4;;;;;;;21.23;42.96973;1003.584;;;;
2019/09/10 10:46:28;;;;;;;5.6;4.2;;;;;;;20.99;43.94336;1003.542;;;;
2019/09/10 10:48:53;;;;;;;9;4.7;;;;;;;21.23;42.61816;1003.526;;;;
2019/09/10 10:51:18;;;;;;;6.3;4.2;;;;;;;20.81;44.23047;1003.566;;;;
2019/09/10 10:53:43;;;;;;;7.2;4.3;;;;;;;21.06;44.66504;1003.487;;;;
2019/09/10 10:56:08;;;;;;;6.6;4.3;;;;;;;21.73;42.85449;1003.579;;;;
2019/09/10 10:58:34;;;;;;;6.3;3.8;;;;;;;21.86;42.91309;1003.544;;;;
2019/09/10 11:00:58;;;;;;;7.1;5.4;;;;;;;21.91;43.6123;1003.649;;;;
2019/09/10 11:03:24;;;;;;;7.6;5.1;;;;;;;21.57;44.9873;1003.614;;;;
2019/09/10 11:05:49;;;;;;;11.1;6.2;;;;;;;21.35;45.42285;1003.592;;;;
2019/09/10 11:08:14;;;;;;;7.2;4.6;;;;;;;21.4;44.96973;1003.584;;;;
2019/09/10 11:10:39;;;;;;;7.8;4.2;;;;;;;21.39;44.32324;1003.519;;;;
2019/09/10 11:13:04;;;;;;;6;4;;;;;;;20.98;43.77734;1003.521;;;;
2019/09/10 11:15:29;;;;;;;5.7;4.1;;;;;;;20.66;45.01172;1003.583;;;;
2019/09/10 11:17:54;;;;;;;5.3;4.1;;;;;;;20.46;45.08594;1003.566;;;;
2019/09/10 11:20:19;;;;;;;6.2;3.8;;;;;;;20.46;44.85156;1003.609;;;;
2019/09/10 11:22:44;;;;;;;6.3;3.8;;;;;;;20.45;45.44727;1003.626;;;;
2019/09/10 11:25:10;;;;;;;6;4.6;;;;;;;20.53;44.03906;1003.717;;;;
2019/09/10 11:27:35;;;;;;;7.5;4.5;;;;;;;20.9;43.7002;1003.691;;;;
2019/09/10 11:30:00;;;;;;;5.2;3.7;;;;;;;21.56;43.6709;1003.692;;;;
2019/09/10 11:32:25;;;;;;;4.5;3.3;;;;;;;21.29;42.82324;1003.673;;;;
2019/09/10 11:34:50;;;;;;;3.9;3.5;;;;;;;21.34;42.52246;1003.669;;;;
2019/09/10 11:37:15;;;;;;;6.6;4.4;;;;;;;21.11;43.23926;1003.711;;;;
2019/09/10 11:39:40;;;;;;;6;4;;;;;;;21.05;44.125;1003.69;;;;
2019/09/10 11:42:05;;;;;;;5.4;3.9;;;;;;;21.15;43.98242;1003.711;;;;
2019/09/10 11:44:31;;;;;;;5.7;4.3;;;;;;;20.94;43.71582;1003.679;;;;
2019/09/10 11:46:56;;;;;;;5.2;4.2;;;;;;;21.05;43.92578;1003.667;;;;
2019/09/10 11:49:21;;;;;;;4.9;3.6;;;;;;;21.53;43.7041;1003.711;;;;
2019/09/10 11:51:46;;;;;;;5.8;3.7;;;;;;;21.28;43.40918;1003.752;;;;
2019/09/10 11:54:11;;;;;;;5.7;3.8;;;;;;;21.37;43.05469;1003.729;;;;
2019/09/10 11:56:36;;;;;;;4.6;3.5;;;;;;;21.75;42.12793;1003.679;;;;
2019/09/10 11:59:01;;;;;;;4.1;3;;;;;;;22.27;41.78906;1003.635;;;;
2019/09/10 12:01:26;;;;;;;5.8;3.2;;;;;;;22.5;41.2002;1003.76;;;;
2019/09/10 12:03:51;;;;;;;5.5;3.8;;;;;;;21.9;40.89746;1003.719;;;;
2019/09/10 12:06:16;;;;;;;5.2;4.1;;;;;;;21.15;41.94141;1003.704;;;;
2019/09/10 12:08:42;;;;;;;5.4;3.6;;;;;;;21.53;42.49512;1003.697;;;;
2019/09/10 12:11:07;;;;;;;4.2;3.1;;;;;;;22.16;40.2627;1003.715;;;;
2019/09/10 12:13:32;;;;;;;3.7;3;;;;;;;22.19;39.87695;1003.724;;;;
2019/09/10 12:15:57;;;;;;;7;3.6;;;;;;;21.93;40.58105;1003.73;;;;
2019/09/10 12:18:22;;;;;;;4.3;3.1;;;;;;;21.98;40.31738;1003.712;;;;
2019/09/10 12:20:48;;;;;;;5.5;3.5;;;;;;;22.04;39.59277;1003.734;;;;
2019/09/10 12:23:13;;;;;;;5.4;3.1;;;;;;;22.09;39.53906;1003.722;;;;
2019/09/10 12:25:38;;;;;;;4.5;2.9;;;;;;;21.51;40.12109;1003.73;;;;
2019/09/10 12:28:03;;;;;;;3.4;2.8;;;;;;;21.7;40.67871;1003.784;;;;
2019/09/10 12:30:28;;;;;;;12.2;8.5;;;;;;;21.7;39.24609;1003.86;;;;
2019/09/10 12:32:54;;;;;;;4.9;3.8;;;;;;;21.65;39.63965;1003.776;;;;
2019/09/10 12:35:19;;;;;;;4.4;3.3;;;;;;;21.61;39.52051;1003.836;;;;
2019/09/10 12:37:44;;;;;;;3.7;3;;;;;;;21.49;38.74609;1003.78;;;;
2019/09/10 12:40:09;;;;;;;3.9;2.6;;;;;;;21.78;38.98242;1003.726;;;;
2019/09/10 12:42:34;;;;;;;5.4;2.8;;;;;;;22;39.36719;1003.772;;;;
2019/09/10 12:44:59;;;;;;;4.3;2.5;;;;;;;21.13;39.45313;1003.821;;;;
2019/09/10 12:47:24;;;;;;;3;2.4;;;;;;;21.16;40.40625;1003.866;;;;
2019/09/10 12:49:50;;;;;;;3.5;2.5;;;;;;;21.28;40.38184;1003.868;;;;
2019/09/10 12:52:15;;;;;;;8;5.2;;;;;;;21.22;40.07129;1003.865;;;;
2019/09/10 12:54:40;;;;;;;4.4;3.2;;;;;;;21.36;40.65918;1003.885;;;;
2019/09/10 12:57:05;;;;;;;4.3;3.1;;;;;;;21.37;41.41113;1003.888;;;;
2019/09/10 12:59:31;;;;;;;4.9;3.6;;;;;;;21.88;42.04688;1003.901;;;;
2019/09/10 13:01:56;;;;;;;5.4;3;;;;;;;22.07;40.20801;1003.902;;;;
2019/09/10 13:04:21;;;;;;;4;2.4;;;;;;;22.44;39.79297;1003.844;;;;
2019/09/10 13:06:46;;;;;;;3.5;2.5;;;;;;;22.32;38.73633;1003.856;;;;
2019/09/10 13:09:11;;;;;;;4.6;2.4;;;;;;;22.75;38.59766;1003.854;;;;
2019/09/10 13:11:36;;;;;;;3.7;2.3;;;;;;;22.94;37.57715;1003.771;;;;
2019/09/10 13:14:02;;;;;;;4.1;2.7;;;;;;;21.89;37.8418;1003.799;;;;
2019/09/10 13:16:27;;;;;;;2.9;2.1;;;;;;;21.52;39.47656;1003.816;;;;
2019/09/10 13:18:52;;;;;;;2.6;2.1;;;;;;;21.25;40.08594;1003.745;;;;
2019/09/10 13:21:17;;;;;;;3.5;2.3;;;;;;;21.22;40.30566;1003.768;;;;
2019/09/10 13:23:42;;;;;;;4.8;2.4;;;;;;;21.35;39.64941;1003.688;;;;
2019/09/10 13:26:07;;;;;;;3.6;2.5;;;;;;;21.38;39.08887;1003.718;;;;
2019/09/10 13:28:32;;;;;;;4.8;2.7;;;;;;;21.34;39.84766;1003.693;;;;
2019/09/10 13:30:57;;;;;;;3.6;2.2;;;;;;;21.08;41.02051;1003.659;;;;
2019/09/10 13:33:22;;;;;;;3.1;2.4;;;;;;;20.89;41.78906;1003.77;;;;
2019/09/10 13:35:47;;;;;;;4;2.3;;;;;;;20.83;41.30273;1003.775;;;;
2019/09/10 13:38:13;;;;;;;3.2;2.2;;;;;;;20.85;41.01074;1003.765;;;;
2019/09/10 13:40:38;;;;;;;4.2;2.4;;;;;;;20.82;40.91406;1003.77;;;;
2019/09/10 13:43:03;;;;;;;3;2.3;;;;;;;20.93;41.35742;1003.769;;;;
2019/09/10 13:45:28;;;;;;;3.7;2.7;;;;;;;21.22;41.11621;1003.74;;;;
2019/09/10 13:47:53;;;;;;;5.1;3.7;;;;;;;21.36;40.84766;1003.714;;;;
2019/09/10 13:50:18;;;;;;;4;2.6;;;;;;;21.35;41.10449;1003.719;;;;
2019/09/10 13:52:43;;;;;;;2.9;2.4;;;;;;;21.38;40.6377;1003.709;;;;
2019/09/10 13:55:08;;;;;;;2.8;2.1;;;;;;;21.21;41.32617;1003.698;;;;
2019/09/10 13:57:34;;;;;;;4.9;2.9;;;;;;;21.45;41.37207;1003.716;;;;
2019/09/10 13:59:59;;;;;;;3.5;2.5;;;;;;;21.77;40.71973;1003.695;;;;
2019/09/10 14:02:24;;;;;;;3.2;2.4;;;;;;;21.89;40.52051;1003.773;;;;
2019/09/10 14:04:49;;;;;;;3;2.2;;;;;;;21.76;40.02637;1003.672;;;;
2019/09/10 14:07:14;;;;;;;4;2.4;;;;;;;21.73;39.97656;1003.749;;;;
2019/09/10 14:09:39;;;;;;;3.4;2.5;;;;;;;21.53;39.37207;1003.739;;;;
2019/09/10 14:12:04;;;;;;;3.4;2.3;;;;;;;21.01;40.74414;1003.714;;;;
2019/09/10 14:14:30;;;;;;;2.9;2.5;;;;;;;21.19;40.45605;1003.757;;;;
2019/09/10 14:16:55;;;;;;;3.6;2.2;;;;;;;21.15;40.86328;1003.783;;;;
2019/09/10 14:19:20;;;;;;;4.4;2.4;;;;;;;21.2;40.36328;1003.828;;;;
2019/09/10 14:21:45;;;;;;;3.6;2.4;;;;;;;20.98;40.21387;1003.814;;;;
2019/09/10 14:24:10;;;;;;;3.4;2.4;;;;;;;21.03;40.55859;1003.751;;;;
2019/09/10 14:26:35;;;;;;;3.9;2.1;;;;;;;20.95;40.77344;1003.793;;;;
2019/09/10 14:29:00;;;;;;;4.3;2.5;;;;;;;21.08;40.36426;1003.762;;;;
2019/09/10 14:31:26;;;;;;;3.1;2.3;;;;;;;21.12;40.37988;1003.746;;;;
2019/09/10 14:33:51;;;;;;;3.6;2.4;;;;;;;21.08;40.75;1003.785;;;;
2019/09/10 14:36:16;;;;;;;3.7;2.4;;;;;;;20.99;41.42285;1003.827;;;;
2019/09/10 14:38:41;;;;;;;3;2.5;;;;;;;20.89;41.55469;1003.778;;;;
2019/09/10 14:41:06;;;;;;;3.9;2.2;;;;;;;20.85;41.5957;1003.783;;;;
2019/09/10 14:43:32;;;;;;;4.8;2.3;;;;;;;20.89;41.58984;1003.799;;;;
2019/09/10 14:45:57;;;;;;;3.9;2.5;;;;;;;20.86;42.21973;1003.805;;;;
2019/09/10 14:48:22;;;;;;;3;2.3;;;;;;;20.93;41.90918;1003.83;;;;
2019/09/10 14:50:47;;;;;;;4.8;2.4;;;;;;;20.79;41.74414;1003.844;;;;
2019/09/10 14:53:12;;;;;;;3.2;2.6;;;;;;;20.78;41.85938;1003.907;;;;
2019/09/10 14:55:37;;;;;;;4.8;2.5;;;;;;;20.64;41.55371;1003.836;;;;
2019/09/10 14:58:03;;;;;;;4.6;2.5;;;;;;;20.83;41.31348;1003.742;;;;
2019/09/10 15:00:28;;;;;;;3.8;2.5;;;;;;;20.97;40.97559;1003.703;;;;
2019/09/10 15:02:53;;;;;;;4.5;2.5;;;;;;;21;41.27051;1003.715;;;;
2019/09/10 15:05:18;;;;;;;4.2;2.7;;;;;;;21.11;41.02344;1003.735;;;;
2019/09/10 15:07:43;;;;;;;3.2;2.5;;;;;;;20.89;41.42578;1003.719;;;;
2019/09/10 15:10:08;;;;;;;3;2.6;;;;;;;20.78;41.3916;1003.774;;;;
2019/09/10 15:12:33;;;;;;;4.3;2.5;;;;;;;20.7;41.47754;1003.785;;;;